createdAt,value
2023-02-12T00:05:01.280Z,1.34
2023-02-12T00:10:09.537Z,1.30
2023-02-12T00:15:15.315Z,1.26
2023-02-12T00:20:21.143Z,1.18
2023-02-12T00:25:27.032Z,1.11
2023-02-12T00:30:32.631Z,1.09
2023-02-12T00:35:38.663Z,1.07
2023-02-12T00:40:58.661Z,1.02
2023-02-12T00:46:05.301Z,0.97
2023-02-12T00:51:11.564Z,0.90
2023-02-12T00:56:17.290Z,0.86
2023-02-12T01:01:23.383Z,0.81
2023-02-12T01:06:29.470Z,0.75
2023-02-12T01:11:35.339Z,0.75
2023-02-12T01:16:41.127Z,0.79
2023-02-12T01:21:46.932Z,0.84
2023-02-12T01:26:52.544Z,0.85
2023-02-12T01:31:58.267Z,0.83
2023-02-12T01:37:04.181Z,0.78
2023-02-12T01:42:14.232Z,0.75
2023-02-12T01:47:20.289Z,0.71
2023-02-12T01:52:29.038Z,0.70
2023-02-12T01:57:38.543Z,0.74
2023-02-12T02:02:45.644Z,0.77
2023-02-12T02:07:54.112Z,0.76
2023-02-12T02:13:19.084Z,0.74
2023-02-12T02:18:33.714Z,0.67
2023-02-12T02:23:59.614Z,0.63
2023-02-12T02:29:41.022Z,0.58
2023-02-12T02:34:53.444Z,0.60
2023-02-12T02:40:09.752Z,0.67
2023-02-12T02:45:21.215Z,0.71
2023-02-12T02:50:29.385Z,0.68
2023-02-12T02:55:41.004Z,0.65
2023-02-12T03:00:54.962Z,0.60
2023-02-12T03:06:06.574Z,0.63
2023-02-12T03:11:17.911Z,0.66
2023-02-12T03:16:27.484Z,0.65
2023-02-12T03:21:37.305Z,0.63
2023-02-12T03:26:47.450Z,0.60
2023-02-12T03:32:16.088Z,0.54
2023-02-12T03:37:27.106Z,0.50
2023-02-12T03:42:44.110Z,0.47
2023-02-12T03:47:59.793Z,0.43
2023-02-12T03:53:06.322Z,0.40
2023-02-12T03:58:17.743Z,0.38
2023-02-12T04:03:24.367Z,0.40
2023-02-12T04:08:31.176Z,0.43
2023-02-12T04:13:47.161Z,0.39
2023-02-12T04:18:54.063Z,0.37
2023-02-12T04:24:07.020Z,0.35
2023-02-12T04:29:25.692Z,0.34
2023-02-12T04:34:40.467Z,0.30
2023-02-12T04:39:48.290Z,0.27
2023-02-12T04:44:54.844Z,0.23
2023-02-12T04:50:00.656Z,0.19
2023-02-12T04:55:07.307Z,0.21
2023-02-12T05:00:16.533Z,0.24
2023-02-12T05:05:22.829Z,0.28
2023-02-12T05:10:28.737Z,0.27
2023-02-12T05:15:34.416Z,0.20
2023-02-12T05:20:40.083Z,0.14
2023-02-12T05:25:45.724Z,0.10
2023-02-12T05:30:51.350Z,0.06
2023-02-12T05:36:03.037Z,0.02
2023-02-12T05:41:11.341Z,-0.02
2023-02-12T05:46:18.019Z,-0.06
2023-02-12T05:51:25.886Z,-0.02
2023-02-12T05:56:33.380Z,0.05
2023-02-12T06:01:41.532Z,0.04
2023-02-12T06:06:47.041Z,-0.04
2023-02-12T06:11:52.734Z,-0.11
2023-02-12T06:16:58.628Z,-0.16
2023-02-12T06:22:04.910Z,-0.28
2023-02-12T06:27:10.659Z,-0.41
2023-02-12T06:32:16.531Z,-0.49
2023-02-12T06:37:22.141Z,-0.48
2023-02-12T06:42:27.925Z,-0.39
2023-02-12T06:47:33.656Z,-0.21
2023-02-12T06:52:39.589Z,1.28
2023-02-12T06:57:45.270Z,3.89
2023-02-12T07:02:55.863Z,6.40
2023-02-12T07:08:05.397Z,8.35
2023-02-12T07:13:11.349Z,8.92
2023-02-12T07:18:17.049Z,8.52
2023-02-12T07:23:22.801Z,9.36
2023-02-12T07:28:28.897Z,10.84
2023-02-12T07:33:34.864Z,10.73
2023-02-12T07:38:42.889Z,9.10
2023-02-12T07:43:54.052Z,7.56
2023-02-12T07:49:01.133Z,6.42
2023-02-12T07:54:07.393Z,5.88
2023-02-12T07:59:15.722Z,5.91
2023-02-12T08:04:23.400Z,7.80
2023-02-12T08:09:32.776Z,11.21
2023-02-12T08:14:38.608Z,13.59
2023-02-12T08:19:44.283Z,15.17
2023-02-12T08:24:50.119Z,16.36
2023-02-12T08:29:55.688Z,17.23
2023-02-12T08:35:01.575Z,16.58
2023-02-12T08:40:10.993Z,15.00
2023-02-12T08:45:17.937Z,12.73
2023-02-12T08:50:23.607Z,11.02
2023-02-12T08:55:32.154Z,10.54
2023-02-12T09:00:40.407Z,10.26
2023-02-12T09:06:23.722Z,9.66
2023-02-12T09:11:30.887Z,9.01
2023-02-12T09:16:38.226Z,8.26
2023-02-12T09:21:44.266Z,7.70
2023-02-12T09:26:49.977Z,8.03
2023-02-12T09:31:55.915Z,9.45
2023-02-12T09:37:01.788Z,11.39
2023-02-12T09:42:26.289Z,13.07
2023-02-12T09:47:40.073Z,14.30
2023-02-12T09:52:46.599Z,15.29
2023-02-12T09:57:54.781Z,16.00
2023-02-12T10:03:06.092Z,16.29
2023-02-12T10:08:38.194Z,16.43
2023-02-12T10:13:53.983Z,16.47
2023-02-12T10:19:14.567Z,16.40
2023-02-12T10:24:35.244Z,16.22
2023-02-12T10:29:43.785Z,15.68
2023-02-12T10:34:51.444Z,15.42
2023-02-12T10:40:02.201Z,14.71
2023-02-12T10:45:16.638Z,13.96
2023-02-12T10:50:32.766Z,13.09
2023-02-12T10:55:38.317Z,12.64
2023-02-12T11:00:44.414Z,12.40
2023-02-12T11:05:50.222Z,11.91
2023-02-12T11:11:02.681Z,11.34
2023-02-12T11:16:09.453Z,10.74
2023-02-12T11:21:15.086Z,10.35
2023-02-12T11:26:29.736Z,10.17
2023-02-12T11:31:37.552Z,10.15
2023-02-12T11:36:45.425Z,10.07
2023-02-12T11:41:55.325Z,9.87
2023-02-12T11:47:07.030Z,9.64
2023-02-12T11:52:21.564Z,9.31
2023-02-12T11:57:47.218Z,8.93
2023-02-12T12:03:00.301Z,8.70
2023-02-12T12:08:15.967Z,8.71
2023-02-12T12:13:30.281Z,8.78
2023-02-12T12:19:04.964Z,8.55
2023-02-12T12:24:17.364Z,8.36
2023-02-12T12:29:30.507Z,8.01
2023-02-12T12:34:36.240Z,7.77
2023-02-12T12:39:57.908Z,7.59
2023-02-12T12:45:25.805Z,7.58
2023-02-12T12:50:52.543Z,7.43
2023-02-12T12:56:25.157Z,7.42
2023-02-12T13:01:50.414Z,7.59
2023-02-12T13:07:12.675Z,7.76
2023-02-12T13:12:36.364Z,7.87
2023-02-12T13:17:50.132Z,7.71
2023-02-12T13:23:01.054Z,7.47
2023-02-12T13:28:12.596Z,7.22
2023-02-12T13:33:21.475Z,6.87
2023-02-12T13:38:29.700Z,6.65
2023-02-12T13:44:01.739Z,6.46
2023-02-12T13:49:21.635Z,6.32
2023-02-12T13:54:45.908Z,6.27
2023-02-12T13:59:53.940Z,6.05
2023-02-12T14:05:00.856Z,5.85
2023-02-12T14:10:09.364Z,5.72
2023-02-12T14:15:29.930Z,5.46
2023-02-12T14:20:38.071Z,5.19
2023-02-12T14:25:47.053Z,5.00
2023-02-12T14:31:21.611Z,4.82
2023-02-12T14:36:42.802Z,4.56
2023-02-12T14:41:49.716Z,4.27
2023-02-12T14:46:57.079Z,4.03
2023-02-12T14:52:06.620Z,3.78
2023-02-12T14:57:21.837Z,3.52
2023-02-12T15:02:30.127Z,3.30
2023-02-12T15:07:41.296Z,3.08
2023-02-12T15:12:52.202Z,2.84
2023-02-12T15:18:03.715Z,2.63
2023-02-12T15:23:37.002Z,2.45
2023-02-12T15:28:46.161Z,2.27
2023-02-12T15:33:56.382Z,2.17
2023-02-12T15:39:04.908Z,2.06
2023-02-12T15:44:29.448Z,1.89
2023-02-12T15:49:37.987Z,1.69
2023-02-12T15:54:45.896Z,1.53
2023-02-12T15:59:55.198Z,1.35
2023-02-12T16:05:03.438Z,1.19
2023-02-12T16:10:14.658Z,1.02
2023-02-12T16:15:28.873Z,0.86
2023-02-12T16:20:35.187Z,0.75
2023-02-12T16:25:40.812Z,0.65
2023-02-12T16:30:48.423Z,0.56
2023-02-12T16:36:04.740Z,0.54
2023-02-12T16:41:27.721Z,0.46
2023-02-12T16:46:44.009Z,0.40
2023-02-12T16:51:50.422Z,0.43
2023-02-12T16:56:56.568Z,0.49
2023-02-12T17:02:04.444Z,0.51
2023-02-12T17:07:20.458Z,0.45
2023-02-12T17:12:27.002Z,0.35
2023-02-12T17:17:32.644Z,0.24
2023-02-12T17:22:38.511Z,0.14
2023-02-12T17:27:44.427Z,0.11
2023-02-12T17:32:51.343Z,0.17
2023-02-12T17:37:57.156Z,0.25
2023-02-12T17:43:03.922Z,0.30
2023-02-12T17:48:09.486Z,0.30
2023-02-12T17:53:15.061Z,0.29
2023-02-12T17:58:20.607Z,0.32
2023-02-12T18:03:26.425Z,0.48
2023-02-12T18:08:32.586Z,0.69
2023-02-12T18:13:39.408Z,0.86
2023-02-12T18:18:45.330Z,1.00
2023-02-12T18:23:52.924Z,1.12
2023-02-12T18:29:00.125Z,1.22
2023-02-12T18:34:08.009Z,1.34
2023-02-12T18:39:13.651Z,1.46
2023-02-12T18:44:19.354Z,1.56
2023-02-12T18:49:25.293Z,1.62
2023-02-12T18:54:31.334Z,1.65
2023-02-12T18:59:37.027Z,1.72
2023-02-12T19:04:43.165Z,1.83
2023-02-12T19:09:48.728Z,1.93
2023-02-12T19:14:54.469Z,1.99
2023-02-12T19:20:00.050Z,2.03
2023-02-12T19:25:07.174Z,2.09
2023-02-12T19:30:14.144Z,2.16
2023-02-12T19:35:20.178Z,2.21
2023-02-12T19:40:25.929Z,2.25
2023-02-12T19:45:34.550Z,2.31
2023-02-12T19:50:46.675Z,2.39
2023-02-12T19:55:52.633Z,2.44
2023-02-12T20:00:59.405Z,2.45
2023-02-12T20:06:09.488Z,2.45
2023-02-12T20:11:17.756Z,2.44
2023-02-12T20:16:26.633Z,2.49
2023-02-12T20:21:33.075Z,2.51
2023-02-12T20:26:39.696Z,2.49
2023-02-12T20:31:45.437Z,2.50
2023-02-12T20:36:51.217Z,2.53
2023-02-12T20:41:56.871Z,2.54
2023-02-12T20:47:02.910Z,2.54
2023-02-12T20:52:08.673Z,2.58
2023-02-12T20:57:14.724Z,2.64
2023-02-12T21:02:20.775Z,2.68
2023-02-12T21:07:26.735Z,2.70
2023-02-12T21:12:32.550Z,2.75
2023-02-12T21:17:38.293Z,2.80
2023-02-12T21:22:44.037Z,2.80
2023-02-12T21:27:49.934Z,2.81
2023-02-12T21:32:55.748Z,2.82
2023-02-12T21:38:01.478Z,2.85
2023-02-12T21:43:06.991Z,2.87
2023-02-12T21:48:12.486Z,2.85
2023-02-12T21:53:18.057Z,2.87
2023-02-12T21:58:23.588Z,2.92
2023-02-12T22:03:29.101Z,2.94
2023-02-12T22:08:35.511Z,2.97
2023-02-12T22:13:41.675Z,3.06
2023-02-12T22:18:49.084Z,3.12
2023-02-12T22:23:55.817Z,3.15
2023-02-12T22:29:05.799Z,3.19
2023-02-12T22:34:13.760Z,3.26
2023-02-12T22:39:21.375Z,3.27
2023-02-12T22:44:27.229Z,3.29
2023-02-12T22:49:33.437Z,3.33
2023-02-12T22:54:40.438Z,3.37
2023-02-12T22:59:46.872Z,3.38
2023-02-12T23:04:52.641Z,3.41
2023-02-12T23:09:58.331Z,3.43
2023-02-12T23:15:04.243Z,3.44
2023-02-12T23:20:12.085Z,3.46
2023-02-12T23:25:17.969Z,3.51
2023-02-12T23:30:23.823Z,3.52
2023-02-12T23:35:29.654Z,3.52
2023-02-12T23:40:35.993Z,3.58
2023-02-12T23:45:42.516Z,3.62
2023-02-12T23:50:49.930Z,3.64
2023-02-12T23:55:56.196Z,3.67
